Time;durP1;ratioP1;P1;durP2;ratioP2;P2;SDS_P1;SDS_P2;PMS_P1;PMS_P2;Temp;Humidity;BMP_temperature;BMP_pressure;BME280_temperature;BME280_humidity;BME280_pressure;Samples;Min_cycle;Max_cycle;Signal;HPM_P1;HPM_P2
2023/05/01 00:01:23;;;;;;;1.90;1.70;;;16.60;63.00;;;;;;5027538;28;20175;-76
2023/05/01 00:03:50;;;;;;;1.88;1.65;;;16.60;63.10;;;;;;5013386;28;20139;-75
2023/05/01 00:06:15;;;;;;;2.00;1.60;;;16.60;63.10;;;;;;5011343;28;20486;-75
2023/05/01 00:08:41;;;;;;;2.80;1.80;;;16.50;63.10;;;;;;5033069;28;20063;-75
2023/05/01 00:11:11;;;;;;;2.13;1.50;;;16.50;63.10;;;;;;5035183;28;20040;-75
2023/05/01 00:13:37;;;;;;;2.10;1.60;;;16.50;63.20;;;;;;5032332;28;20096;-75
2023/05/01 00:16:10;;;;;;;1.95;1.67;;;16.40;63.10;;;;;;5027800;28;20033;-75
2023/05/01 00:18:37;;;;;;;1.73;1.60;;;16.40;63.30;;;;;;5008172;28;20036;-75
2023/05/01 00:21:03;;;;;;;1.90;1.70;;;16.40;63.30;;;;;;5035290;28;20030;-75
2023/05/01 00:23:28;;;;;;;1.70;1.60;;;16.30;63.20;;;;;;5016253;28;20037;-75
2023/05/01 00:25:54;;;;;;;2.35;1.65;;;16.30;63.30;;;;;;5027067;28;20534;-76
2023/05/01 00:28:20;;;;;;;2.95;1.60;;;16.30;63.30;;;;;;5029559;28;20187;-75
2023/05/01 00:30:46;;;;;;;1.85;1.50;;;16.30;63.30;;;;;;5015080;28;20025;-76
2023/05/01 00:33:12;;;;;;;2.35;1.70;;;16.20;63.30;;;;;;5027366;28;20371;-75
2023/05/01 00:35:38;;;;;;;2.33;1.60;;;16.30;63.40;;;;;;5027690;28;20247;-75
2023/05/01 00:38:04;;;;;;;2.00;1.60;;;16.20;63.40;;;;;;5022224;28;20558;-75
2023/05/01 00:40:30;;;;;;;2.13;1.65;;;16.20;63.40;;;;;;5028542;28;20029;-75
2023/05/01 00:42:55;;;;;;;2.15;1.58;;;16.20;63.40;;;;;;4996492;28;20047;-75
2023/05/01 00:45:21;;;;;;;3.53;2.20;;;16.20;63.50;;;;;;5029180;28;20164;-75
2023/05/01 00:47:47;;;;;;;1.60;1.50;;;16.10;63.40;;;;;;5029438;28;20550;-75
2023/05/01 00:50:13;;;;;;;2.45;1.75;;;16.10;63.40;;;;;;5028664;28;20040;-75
2023/05/01 00:52:39;;;;;;;3.15;1.65;;;16.10;63.50;;;;;;5021758;28;20076;-75
2023/05/01 00:55:06;;;;;;;2.60;1.90;;;16.00;63.40;;;;;;5029103;28;20038;-75
2023/05/01 00:57:32;;;;;;;1.90;1.70;;;16.00;63.50;;;;;;5029487;28;20256;-75
2023/05/01 00:59:58;;;;;;;1.83;1.60;;;16.00;63.50;;;;;;5029296;28;20474;-75
2023/05/01 01:02:25;;;;;;;2.38;1.70;;;16.00;63.60;;;;;;5027100;28;20087;-76
2023/05/01 01:04:51;;;;;;;2.33;1.90;;;16.00;63.60;;;;;;5029668;28;20034;-75
2023/05/01 01:07:29;;;;;;;2.70;1.60;;;16.00;63.60;;;;;;5015595;28;20035;-75
2023/05/01 01:10:31;;;;;;;1.77;1.60;;;15.90;63.50;;;;;;5042594;28;20059;-75
2023/05/01 01:13:27;;;;;;;2.22;1.60;;;15.90;63.60;;;;;;5018091;28;20033;-75
2023/05/01 01:16:04;;;;;;;1.70;1.60;;;15.90;63.60;;;;;;5026407;28;20021;-75
2023/05/01 01:18:46;;;;;;;2.33;1.73;;;15.80;63.60;;;;;;5025594;28;20041;-75
2023/05/01 01:21:22;;;;;;;2.83;1.90;;;15.80;63.60;;;;;;5026936;28;20021;-75
2023/05/01 01:23:50;;;;;;;3.63;1.90;;;15.80;63.70;;;;;;5026259;28;20045;-75
2023/05/01 01:26:36;;;;;;;2.17;1.80;;;15.80;63.70;;;;;;5027853;28;20030;-76
2023/05/01 01:29:08;;;;;;;2.55;1.80;;;15.70;63.70;;;;;;5023770;28;20500;-75
2023/05/01 01:31:52;;;;;;;2.40;1.77;;;15.70;63.70;;;;;;5010026;28;20449;-75
2023/05/01 01:34:29;;;;;;;2.03;1.55;;;15.70;63.80;;;;;;5020092;28;20390;-76
2023/05/01 01:37:03;;;;;;;2.58;1.73;;;15.60;63.70;;;;;;5020410;28;20105;-75
2023/05/01 01:39:42;;;;;;;2.38;1.67;;;15.60;63.70;;;;;;5017368;28;20057;-75
2023/05/01 01:42:12;;;;;;;1.92;1.73;;;15.60;63.70;;;;;;5027497;28;20022;-76
2023/05/01 01:44:46;;;;;;;2.25;1.80;;;15.60;63.80;;;;;;5027051;28;20029;-76
2023/05/01 01:47:14;;;;;;;2.10;1.90;;;15.60;63.80;;;;;;5017634;28;20030;-75
2023/05/01 01:49:45;;;;;;;2.30;1.70;;;15.60;63.80;;;;;;5023702;28;20049;-75
2023/05/01 01:52:14;;;;;;;2.58;2.00;;;15.50;63.80;;;;;;5018219;28;20022;-75
2023/05/01 01:54:46;;;;;;;1.92;1.67;;;15.50;63.80;;;;;;5030323;28;20032;-75
2023/05/01 01:57:15;;;;;;;2.53;2.03;;;15.50;63.80;;;;;;5042426;28;20434;-75
2023/05/01 01:59:42;;;;;;;2.42;1.73;;;15.40;63.80;;;;;;5029522;28;20047;-75
2023/05/01 02:02:08;;;;;;;2.05;1.73;;;15.40;63.90;;;;;;5028220;28;20061;-75
2023/05/01 02:04:35;;;;;;;1.70;1.60;;;15.50;63.90;;;;;;5017866;28;20049;-75
2023/05/01 02:07:03;;;;;;;1.85;1.58;;;15.40;63.90;;;;;;5023483;28;20033;-75
2023/05/01 02:09:30;;;;;;;2.53;1.88;;;15.40;63.90;;;;;;5027072;28;20112;-75
2023/05/01 02:11:57;;;;;;;3.63;2.22;;;15.30;63.90;;;;;;5030662;28;20029;-76
2023/05/01 02:14:25;;;;;;;2.00;1.70;;;15.40;64.00;;;;;;5028904;28;20076;-75
2023/05/01 02:16:52;;;;;;;2.38;1.80;;;15.40;64.00;;;;;;5022681;28;20437;-75
2023/05/01 02:19:19;;;;;;;2.03;1.80;;;15.30;64.00;;;;;;5031633;28;20064;-75
2023/05/01 02:21:46;;;;;;;2.08;1.67;;;15.30;64.00;;;;;;5009074;28;20084;-75
2023/05/01 02:24:13;;;;;;;3.35;2.00;;;15.30;64.10;;;;;;5031996;28;20477;-75
2023/05/01 02:26:50;;;;;;;2.75;2.10;;;15.30;64.00;;;;;;5014067;28;20384;-76
2023/05/01 02:29:16;;;;;;;2.65;1.98;;;15.30;64.10;;;;;;5031162;28;20479;-75
2023/05/01 02:31:42;;;;;;;2.83;1.80;;;15.20;64.00;;;;;;5035683;28;20040;-75
2023/05/01 02:34:08;;;;;;;3.10;2.03;;;15.20;64.00;;;;;;5035945;28;20030;-75
2023/05/01 02:36:34;;;;;;;1.90;1.60;;;15.20;64.10;;;;;;5031304;28;20112;-75
2023/05/01 02:39:00;;;;;;;2.40;1.80;;;15.20;64.10;;;;;;5024164;28;20551;-76
2023/05/01 02:41:27;;;;;;;2.53;1.90;;;15.10;64.10;;;;;;5031135;28;20041;-75
2023/05/01 02:43:59;;;;;;;2.33;1.85;;;15.10;64.10;;;;;;5015508;28;20390;-75
2023/05/01 02:46:26;;;;;;;2.35;1.75;;;15.10;64.20;;;;;;5016389;28;20041;-75
2023/05/01 02:48:55;;;;;;;2.13;1.80;;;15.10;64.20;;;;;;5016247;28;20136;-76
2023/05/01 02:51:22;;;;;;;2.95;1.92;;;15.10;64.20;;;;;;5030276;28;20139;-75
2023/05/01 02:53:48;;;;;;;2.03;1.80;;;15.10;64.20;;;;;;5035270;28;20028;-76
2023/05/01 02:56:19;;;;;;;2.42;1.80;;;15.00;64.20;;;;;;5015468;28;20029;-75
2023/05/01 02:58:46;;;;;;;3.25;1.95;;;15.10;64.30;;;;;;5036748;28;20116;-76
2023/05/01 03:01:12;;;;;;;2.80;1.60;;;15.10;64.30;;;;;;5015177;28;20028;-74
2023/05/01 03:03:38;;;;;;;2.63;1.85;;;15.00;64.30;;;;;;5029975;28;20113;-76
2023/05/01 03:06:04;;;;;;;2.22;1.73;;;15.00;64.30;;;;;;5025037;28;20577;-75
2023/05/01 03:08:30;;;;;;;2.85;1.80;;;15.00;64.30;;;;;;4999328;28;20116;-75
2023/05/01 03:10:55;;;;;;;2.35;1.80;;;15.00;64.40;;;;;;5027119;28;20044;-75
2023/05/01 03:13:21;;;;;;;2.63;1.88;;;15.00;64.40;;;;;;5027923;28;20126;-75
2023/05/01 03:15:47;;;;;;;2.20;1.58;;;15.00;64.50;;;;;;5035388;28;20029;-75
2023/05/01 03:18:13;;;;;;;2.00;1.75;;;15.00;64.50;;;;;;5026791;28;20033;-75
2023/05/01 03:20:39;;;;;;;1.65;1.52;;;14.90;64.50;;;;;;5027203;28;20040;-75
2023/05/01 03:23:06;;;;;;;3.00;2.20;;;14.90;64.50;;;;;;5011656;28;20440;-75
2023/05/01 03:25:32;;;;;;;2.35;1.90;;;14.90;64.50;;;;;;5029893;28;20025;-75
2023/05/01 03:27:58;;;;;;;1.83;1.65;;;14.90;64.50;;;;;;5033091;28;20425;-76
2023/05/01 03:30:24;;;;;;;2.83;2.00;;;14.90;64.60;;;;;;5013246;28;20025;-75
2023/05/01 03:32:50;;;;;;;2.00;1.73;;;14.90;64.60;;;;;;5030069;28;20045;-75
2023/05/01 03:35:22;;;;;;;2.60;2.05;;;14.90;64.60;;;;;;5029583;28;20080;-75
2023/05/01 03:37:48;;;;;;;2.28;1.80;;;14.80;64.60;;;;;;5029910;28;20121;-76
2023/05/01 03:40:27;;;;;;;1.80;1.65;;;14.80;64.70;;;;;;5040368;28;20427;-75
2023/05/01 03:43:22;;;;;;;2.00;1.80;;;14.80;64.70;;;;;;5020799;28;20038;-75
2023/05/01 03:45:50;;;;;;;2.17;1.83;;;14.80;64.70;;;;;;5051223;28;20075;-75
2023/05/01 03:48:17;;;;;;;3.53;2.38;;;14.80;64.80;;;;;;5027748;28;20021;-75
2023/05/01 03:50:42;;;;;;;2.30;2.00;;;14.80;64.80;;;;;;5021087;28;20363;-75
2023/05/01 03:53:08;;;;;;;1.98;1.67;;;14.70;64.80;;;;;;5025666;28;20459;-75
2023/05/01 03:55:34;;;;;;;2.22;1.70;;;14.70;64.80;;;;;;5012963;28;20056;-74
2023/05/01 03:58:00;;;;;;;2.38;2.00;;;14.70;64.80;;;;;;5010887;28;20038;-75
2023/05/01 04:00:26;;;;;;;2.80;2.00;;;14.70;64.80;;;;;;5015371;28;20442;-76
2023/05/01 04:02:52;;;;;;;3.03;2.30;;;14.70;64.80;;;;;;5031821;28;20025;-76
2023/05/01 04:05:22;;;;;;;2.70;2.08;;;14.70;64.90;;;;;;5013454;28;20022;-75
2023/05/01 04:07:52;;;;;;;2.88;1.90;;;14.70;64.80;;;;;;5031245;28;20041;-75
2023/05/01 04:10:18;;;;;;;2.10;1.90;;;14.70;64.80;;;;;;5013398;28;20045;-75
2023/05/01 04:12:52;;;;;;;2.38;1.90;;;14.60;64.90;;;;;;5018424;28;20041;-75
2023/05/01 04:15:18;;;;;;;2.83;2.08;;;14.60;64.90;;;;;;5015408;28;20425;-75
2023/05/01 04:17:43;;;;;;;2.65;1.98;;;14.60;64.90;;;;;;5034762;28;20029;-75
2023/05/01 04:20:09;;;;;;;2.58;2.10;;;14.60;64.90;;;;;;5029861;28;20112;-75
2023/05/01 04:22:36;;;;;;;2.85;2.00;;;14.60;64.90;;;;;;5030951;28;20029;-75
2023/05/01 04:25:03;;;;;;;2.80;1.92;;;14.60;64.90;;;;;;5029493;28;20458;-76
2023/05/01 04:27:29;;;;;;;2.25;1.80;;;14.60;65.00;;;;;;5013344;28;20033;-75
2023/05/01 04:29:56;;;;;;;2.38;1.77;;;14.60;65.00;;;;;;5015008;28;20050;-76
2023/05/01 04:32:22;;;;;;;2.42;1.77;;;14.60;65.70;;;;;;5002823;28;20902;-75
2023/05/01 04:34:48;;;;;;;2.83;2.10;;;14.60;65.10;;;;;;5017525;28;20030;-75
2023/05/01 04:37:16;;;;;;;2.45;1.85;;;14.60;65.10;;;;;;5022920;28;20108;-75
2023/05/01 04:39:43;;;;;;;2.72;2.10;;;14.60;65.10;;;;;;5007799;28;20121;-76
2023/05/01 04:42:09;;;;;;;2.65;2.10;;;14.60;65.10;;;;;;5023312;28;20406;-75
2023/05/01 04:44:36;;;;;;;2.38;1.92;;;14.60;65.10;;;;;;5012509;28;20034;-75
2023/05/01 04:47:02;;;;;;;2.20;1.95;;;14.50;65.00;;;;;;5010142;28;20162;-76
2023/05/01 04:49:28;;;;;;;2.72;2.10;;;14.50;65.10;;;;;;5008007;28;20040;-76
2023/05/01 04:51:54;;;;;;;2.70;2.08;;;14.50;65.10;;;;;;5025512;28;20553;-76
2023/05/01 04:54:22;;;;;;;3.22;2.17;;;14.50;65.10;;;;;;5026013;28;20669;-76
2023/05/01 04:56:48;;;;;;;1.98;1.73;;;14.50;65.20;;;;;;5008668;28;20466;-76
2023/05/01 04:59:14;;;;;;;2.90;2.13;;;14.50;65.20;;;;;;5012720;28;20034;-76
2023/05/01 05:01:40;;;;;;;2.67;2.10;;;14.50;65.20;;;;;;5017142;28;20036;-76
2023/05/01 05:04:06;;;;;;;2.65;1.90;;;14.50;65.20;;;;;;5016308;28;20025;-75
2023/05/01 05:06:32;;;;;;;2.20;1.85;;;14.50;65.10;;;;;;5015997;28;20470;-76
2023/05/01 05:08:58;;;;;;;2.55;2.05;;;14.40;65.10;;;;;;5016061;28;20036;-76
2023/05/01 05:11:24;;;;;;;2.85;2.10;;;14.50;65.20;;;;;;5030336;28;20134;-75
2023/05/01 05:13:59;;;;;;;3.33;2.33;;;14.50;65.20;;;;;;5031246;28;20037;-76
2023/05/01 05:16:24;;;;;;;2.70;1.95;;;14.40;65.10;;;;;;5028912;28;20037;-76
2023/05/01 05:18:51;;;;;;;3.88;2.30;;;14.50;65.20;;;;;;5012474;28;20129;-75
2023/05/01 05:21:17;;;;;;;2.63;2.05;;;14.50;65.20;;;;;;5015211;28;20033;-76
2023/05/01 05:23:50;;;;;;;3.53;2.30;;;14.40;65.20;;;;;;5012099;28;20538;-75
2023/05/01 05:26:16;;;;;;;2.65;2.13;;;14.40;65.20;;;;;;5011826;28;20045;-75
2023/05/01 05:28:42;;;;;;;3.22;2.30;;;14.40;65.30;;;;;;5015864;28;20172;-76
2023/05/01 05:31:08;;;;;;;2.50;2.00;;;14.40;65.30;;;;;;5010743;28;20100;-76
2023/05/01 05:33:34;;;;;;;3.35;2.15;;;14.40;65.30;;;;;;4998365;28;20124;-76
2023/05/01 05:36:02;;;;;;;2.72;2.15;;;14.40;65.30;;;;;;5009381;28;20033;-76
2023/05/01 05:38:34;;;;;;;3.03;2.15;;;14.40;65.30;;;;;;5020338;28;20116;-76
2023/05/01 05:41:01;;;;;;;3.45;2.13;;;14.40;65.40;;;;;;5009866;28;20038;-76
2023/05/01 05:43:28;;;;;;;4.00;2.60;;;14.40;65.40;;;;;;5007575;28;20026;-75
2023/05/01 05:46:00;;;;;;;3.33;2.20;;;14.40;65.40;;;;;;5028931;28;20126;-75
2023/05/01 05:48:27;;;;;;;2.08;1.75;;;14.40;65.40;;;;;;5031129;28;20037;-76
2023/05/01 05:50:53;;;;;;;3.42;2.20;;;14.40;65.40;;;;;;5030278;28;20029;-76
2023/05/01 05:53:20;;;;;;;2.85;2.10;;;14.40;65.40;;;;;;5016767;28;20045;-75
2023/05/01 05:55:46;;;;;;;3.80;2.55;;;14.40;65.40;;;;;;5031269;28;20135;-75
2023/05/01 05:58:18;;;;;;;2.40;2.05;;;14.40;65.40;;;;;;5016530;28;20052;-75
2023/05/01 06:00:47;;;;;;;2.75;2.00;;;14.40;65.40;;;;;;5028245;28;20378;-75
2023/05/01 06:03:13;;;;;;;4.22;2.28;;;14.40;65.40;;;;;;5024357;28;20028;-76
2023/05/01 06:05:39;;;;;;;2.42;1.98;;;14.50;65.50;;;;;;5033704;28;20119;-76
2023/05/01 06:08:05;;;;;;;2.75;2.15;;;14.50;65.50;;;;;;5016107;28;20026;-75
2023/05/01 06:10:31;;;;;;;2.83;2.20;;;14.50;65.50;;;;;;5001503;28;20041;-75
2023/05/01 06:12:56;;;;;;;2.75;2.15;;;14.50;65.50;;;;;;5017634;28;20037;-74
2023/05/01 06:15:23;;;;;;;3.70;2.40;;;14.40;65.50;;;;;;5035072;28;20022;-75
2023/05/01 06:17:53;;;;;;;2.85;2.20;;;14.40;65.40;;;;;;4998830;28;20033;-75
2023/05/01 06:20:19;;;;;;;2.63;2.00;;;14.50;65.50;;;;;;5040799;28;20048;-76
2023/05/01 06:22:45;;;;;;;3.17;2.42;;;14.50;65.50;;;;;;5035967;28;20450;-76
2023/05/01 06:25:19;;;;;;;3.08;2.33;;;14.50;65.50;;;;;;5028076;28;20029;-75
2023/05/01 06:27:45;;;;;;;3.35;2.13;;;14.50;65.50;;;;;;5005688;28;20636;-75
2023/05/01 06:30:11;;;;;;;3.72;2.40;;;14.50;65.50;;;;;;5018133;28;20516;-75
2023/05/01 06:32:42;;;;;;;2.90;2.05;;;14.50;65.50;;;;;;4984233;28;20022;-75
2023/05/01 06:35:09;;;;;;;3.22;2.05;;;14.50;65.60;;;;;;5002902;28;20034;-75
2023/05/01 06:37:35;;;;;;;3.45;2.40;;;14.50;65.50;;;;;;5017548;28;20071;-75
2023/05/01 06:40:01;;;;;;;3.47;2.38;;;14.50;65.50;;;;;;4984841;28;20034;-76
2023/05/01 06:42:27;;;;;;;2.90;2.28;;;14.50;65.50;;;;;;5015474;28;20367;-75
2023/05/01 06:44:59;;;;;;;2.53;2.17;;;14.60;65.60;;;;;;5014152;28;20402;-75
2023/05/01 06:47:27;;;;;;;3.45;2.38;;;14.60;65.50;;;;;;5034862;28;20068;-75
2023/05/01 06:49:52;;;;;;;3.22;2.15;;;14.60;65.60;;;;;;5017869;28;20057;-75
2023/05/01 06:52:18;;;;;;;3.95;2.45;;;14.60;65.50;;;;;;5038588;28;20493;-75
2023/05/01 06:54:44;;;;;;;3.40;2.63;;;14.50;65.50;;;;;;5035839;28;20029;-76
2023/05/01 06:57:09;;;;;;;3.30;2.22;;;14.60;65.50;;;;;;4999551;28;20022;-75
2023/05/01 06:59:35;;;;;;;2.88;2.03;;;14.60;65.60;;;;;;5032057;28;20125;-75
2023/05/01 07:02:01;;;;;;;2.53;2.17;;;14.60;65.50;;;;;;5007794;28;20371;-75
2023/05/01 07:04:26;;;;;;;3.28;2.40;;;14.60;65.50;;;;;;5033563;28;20033;-75
2023/05/01 07:06:52;;;;;;;2.83;2.22;;;14.60;66.20;;;;;;5011884;28;20097;-75
2023/05/01 07:09:18;;;;;;;3.15;2.33;;;14.60;65.50;;;;;;5023314;28;20478;-75
2023/05/01 07:11:44;;;;;;;2.83;2.10;;;14.60;65.50;;;;;;5027712;28;20037;-75
2023/05/01 07:14:10;;;;;;;4.07;2.40;;;14.60;65.50;;;;;;5036026;28;20477;-75
2023/05/01 07:16:36;;;;;;;4.30;2.47;;;14.60;65.50;;;;;;5032794;28;20096;-75
2023/05/01 07:19:01;;;;;;;3.45;2.33;;;14.60;65.50;;;;;;5013353;28;20159;-75
2023/05/01 07:21:27;;;;;;;4.13;2.53;;;14.70;65.60;;;;;;5033053;28;20108;-75
2023/05/01 07:23:53;;;;;;;4.07;2.65;;;14.60;65.50;;;;;;5029682;28;20036;-75
2023/05/01 07:26:18;;;;;;;3.38;2.35;;;14.70;65.60;;;;;;5032901;28;20064;-75
2023/05/01 07:28:44;;;;;;;3.47;2.58;;;14.70;65.50;;;;;;5038684;28;20049;-75
2023/05/01 07:31:10;;;;;;;3.80;2.50;;;14.70;65.50;;;;;;5015851;28;20030;-75
2023/05/01 07:33:36;;;;;;;3.63;2.53;;;14.70;65.50;;;;;;5031338;28;20258;-75
2023/05/01 07:36:03;;;;;;;3.78;2.50;;;14.70;65.50;;;;;;5027293;28;20045;-77
2023/05/01 07:38:29;;;;;;;4.70;2.97;;;14.70;65.50;;;;;;5022984;28;20029;-80
2023/05/01 07:40:55;;;;;;;3.33;2.30;;;14.80;65.60;;;;;;5020706;28;20090;-77
2023/05/01 07:43:22;;;;;;;3.25;2.50;;;14.80;65.50;;;;;;5036021;28;20461;-80
2023/05/01 07:45:59;;;;;;;2.58;2.30;;;14.80;65.50;;;;;;5030224;28;20036;-79
2023/05/01 07:48:26;;;;;;;2.80;2.30;;;14.80;65.60;;;;;;5007398;28;20033;-78
2023/05/01 07:50:52;;;;;;;3.25;2.22;;;14.90;65.50;;;;;;5027124;28;20021;-77
2023/05/01 07:53:18;;;;;;;3.58;2.47;;;14.90;65.50;;;;;;5017003;28;20129;-77
2023/05/01 07:55:43;;;;;;;3.75;2.33;;;14.90;65.50;;;;;;5031432;28;20474;-77
2023/05/01 07:58:09;;;;;;;3.08;2.47;;;14.90;65.50;;;;;;5017867;28;20112;-77
2023/05/01 08:00:35;;;;;;;3.65;2.60;;;14.90;65.50;;;;;;4987441;28;20025;-77
2023/05/01 08:03:01;;;;;;;3.42;2.40;;;14.90;65.50;;;;;;5026937;28;20385;-77
2023/05/01 08:05:27;;;;;;;3.25;2.72;;;15.00;65.50;;;;;;5022393;28;20032;-77
2023/05/01 08:07:52;;;;;;;2.95;2.45;;;15.00;65.50;;;;;;5011683;28;20038;-77
2023/05/01 08:10:18;;;;;;;3.38;2.50;;;15.00;65.50;;;;;;5036676;28;20100;-77
2023/05/01 08:12:44;;;;;;;4.15;2.70;;;15.00;65.40;;;;;;4998729;28;20026;-78
2023/05/01 08:15:10;;;;;;;3.83;2.70;;;15.10;65.50;;;;;;5031591;28;20030;-75
2023/05/01 08:17:36;;;;;;;3.90;2.50;;;15.10;65.40;;;;;;5035879;28;20082;-75
2023/05/01 08:20:03;;;;;;;3.50;2.50;;;15.10;65.30;;;;;;5044328;28;20022;-76
2023/05/01 08:22:28;;;;;;;4.18;2.60;;;15.20;65.40;;;;;;5016464;28;20120;-76
2023/05/01 08:24:55;;;;;;;3.92;2.67;;;15.20;65.30;;;;;;5018796;28;20526;-75
2023/05/01 08:27:20;;;;;;;2.92;2.42;;;15.30;65.40;;;;;;5030165;28;20425;-76
2023/05/01 08:29:46;;;;;;;3.08;2.30;;;15.30;65.30;;;;;;4982004;28;20052;-75
2023/05/01 08:32:14;;;;;;;3.70;2.50;;;15.30;65.20;;;;;;5048873;28;20090;-75
2023/05/01 08:34:39;;;;;;;3.40;2.42;;;15.40;65.30;;;;;;5029775;28;20033;-75
2023/05/01 08:37:05;;;;;;;4.10;2.70;;;15.40;65.20;;;;;;5015611;28;20117;-75
2023/05/01 08:39:31;;;;;;;3.85;2.50;;;15.40;65.20;;;;;;5034196;28;20037;-75
2023/05/01 08:41:58;;;;;;;3.30;2.50;;;15.50;65.10;;;;;;5031614;28;20444;-76
2023/05/01 08:44:25;;;;;;;3.42;2.33;;;15.50;65.10;;;;;;5028927;28;20017;-76
2023/05/01 08:46:54;;;;;;;3.63;2.60;;;15.60;65.10;;;;;;5040105;28;20474;-76
2023/05/01 08:49:21;;;;;;;3.25;2.50;;;15.70;65.20;;;;;;5034659;28;20028;-76
2023/05/01 08:51:51;;;;;;;3.17;2.38;;;15.70;65.10;;;;;;5030124;28;20493;-76
2023/05/01 08:54:19;;;;;;;4.55;2.83;;;15.70;65.10;;;;;;5027496;28;20564;-76
2023/05/01 08:56:46;;;;;;;3.53;2.55;;;15.80;65.00;;;;;;5043562;28;20039;-75
2023/05/01 08:59:13;;;;;;;3.42;2.55;;;15.80;65.00;;;;;;5011872;28;20022;-75
2023/05/01 09:01:40;;;;;;;3.08;2.40;;;15.90;65.10;;;;;;5033417;28;20021;-75
2023/05/01 09:04:08;;;;;;;3.53;2.60;;;16.00;65.10;;;;;;5028591;28;20116;-76
2023/05/01 09:06:35;;;;;;;3.35;2.33;;;16.00;65.00;;;;;;5026452;28;20363;-75
2023/05/01 09:09:01;;;;;;;3.55;2.60;;;16.10;65.00;;;;;;5017455;28;20539;-76
2023/05/01 09:11:27;;;;;;;4.20;3.00;;;16.20;65.10;;;;;;5043935;28;20068;-75
2023/05/01 09:13:54;;;;;;;3.95;2.70;;;16.20;65.00;;;;;;5012668;28;20286;-75
2023/05/01 09:16:20;;;;;;;3.00;2.45;;;16.30;65.00;;;;;;5036468;28;20484;-76
2023/05/01 09:18:47;;;;;;;3.80;2.88;;;16.40;65.00;;;;;;4997262;28;20034;-75
2023/05/01 09:21:13;;;;;;;3.85;2.70;;;16.40;65.00;;;;;;5018353;28;20038;-75
2023/05/01 09:23:39;;;;;;;4.22;2.78;;;16.50;65.60;;;;;;5016056;28;20032;-76
2023/05/01 09:26:06;;;;;;;4.13;2.78;;;16.60;64.90;;;;;;5003450;28;20033;-76
2023/05/01 09:28:46;;;;;;;3.92;2.85;;;16.70;64.80;;;;;;5012631;28;20053;-77
2023/05/01 09:31:22;;;;;;;3.38;2.53;;;16.80;64.90;;;;;;5041621;28;20041;-81
2023/05/01 09:33:53;;;;;;;2.83;2.40;;;16.90;64.80;;;;;;5025535;28;21951;-81
2023/05/01 09:36:19;;;;;;;3.40;2.35;;;17.00;64.80;;;;;;5048084;28;20056;-80
2023/05/01 09:38:45;;;;;;;3.30;2.50;;;17.10;64.70;;;;;;5001719;28;20057;-81
2023/05/01 09:41:11;;;;;;;2.90;2.50;;;17.20;64.70;;;;;;5029435;28;20084;-81
2023/05/01 09:43:37;;;;;;;3.30;2.53;;;17.30;65.30;;;;;;5013091;28;20018;-79
2023/05/01 09:46:08;;;;;;;4.32;2.85;;;17.40;64.60;;;;;;5032166;28;20075;-78
2023/05/01 09:48:34;;;;;;;3.70;2.55;;;17.50;64.70;;;;;;5012714;28;20433;-78
2023/05/01 09:51:00;;;;;;;3.95;2.70;;;17.60;64.60;;;;;;5019515;28;20041;-78
2023/05/01 09:53:39;;;;;;;3.80;2.60;;;17.70;64.70;;;;;;5027364;28;20101;-79
2023/05/01 09:56:05;;;;;;;3.88;2.63;;;17.80;64.80;;;;;;5020791;28;20038;-79
2023/05/01 09:58:31;;;;;;;3.15;2.50;;;17.90;64.70;;;;;;5016011;28;20068;-79
2023/05/01 10:00:57;;;;;;;3.58;2.80;;;18.00;64.70;;;;;;5015639;28;20057;-78
2023/05/01 10:03:23;;;;;;;3.45;2.42;;;18.10;64.70;;;;;;5026223;28;20386;-80
2023/05/01 10:05:49;;;;;;;3.42;2.47;;;18.20;64.60;;;;;;5025021;28;20030;-78
2023/05/01 10:08:15;;;;;;;3.75;2.60;;;18.30;64.60;;;;;;4998797;28;20114;-79
2023/05/01 10:10:45;;;;;;;3.28;2.58;;;18.40;64.60;;;;;;5001248;28;20045;-78
2023/05/01 10:13:13;;;;;;;3.70;2.70;;;18.50;64.60;;;;;;5026875;28;20033;-78
2023/05/01 10:15:39;;;;;;;2.72;2.25;;;18.60;64.60;;;;;;5030768;28;20087;-78
2023/05/01 10:18:08;;;;;;;3.45;2.63;;;18.70;64.60;;;;;;5026000;28;20465;-74
2023/05/01 10:20:34;;;;;;;3.08;2.42;;;18.80;64.50;;;;;;5027060;28;20018;-77
2023/05/01 10:23:04;;;;;;;3.17;2.47;;;19.00;64.60;;;;;;5024334;28;20041;-77
2023/05/01 10:25:31;;;;;;;3.60;2.47;;;19.10;64.60;;;;;;5041469;28;20026;-75
2023/05/01 10:27:58;;;;;;;3.63;2.75;;;19.20;64.60;;;;;;5028706;28;20060;-74
2023/05/01 10:30:25;;;;;;;3.60;2.65;;;19.30;64.70;;;;;;5013725;28;20402;-76
2023/05/01 10:32:51;;;;;;;2.55;2.25;;;19.40;64.70;;;;;;5029207;28;20390;-76
2023/05/01 10:35:38;;;;;;;2.90;2.30;;;19.50;64.60;;;;;;4987875;28;20040;-76
2023/05/01 10:38:12;;;;;;;3.65;2.50;;;19.60;64.80;;;;;;5038445;28;20037;-76
2023/05/01 10:40:38;;;;;;;3.63;2.38;;;19.70;64.60;;;;;;5053372;28;20030;-75
2023/05/01 10:43:17;;;;;;;2.78;2.08;;;19.80;64.60;;;;;;5018088;28;20090;-75
2023/05/01 10:45:44;;;;;;;3.25;2.30;;;19.90;64.60;;;;;;5029487;28;20056;-77
2023/05/01 10:48:11;;;;;;;3.85;2.38;;;20.10;64.50;;;;;;5033913;28;20393;-77
2023/05/01 10:51:07;;;;;;;2.92;2.08;;;20.20;64.20;;;;;;5027552;28;20021;-78
2023/05/01 10:53:33;;;;;;;3.20;2.40;;;20.30;64.10;;;;;;5030808;28;20120;-82
2023/05/01 10:55:58;;;;;;;4.10;2.47;;;20.40;63.90;;;;;;5021075;28;20037;-79
2023/05/01 10:58:39;;;;;;;2.67;2.08;;;20.50;64.00;;;;;;5006460;28;20096;-77
2023/05/01 11:01:33;;;;;;;3.22;2.17;;;20.60;64.10;;;;;;5046242;28;20036;-78
2023/05/01 11:04:06;;;;;;;2.80;2.10;;;20.70;64.10;;;;;;5030776;28;20025;-79
2023/05/01 11:06:33;;;;;;;2.78;1.95;;;20.80;64.10;;;;;;5029318;28;20021;-77
2023/05/01 11:08:59;;;;;;;2.75;2.05;;;20.90;64.10;;;;;;5012571;28;20087;-81
2023/05/01 11:11:25;;;;;;;2.65;1.95;;;21.00;64.20;;;;;;5017506;28;20051;-77
2023/05/01 11:13:57;;;;;;;3.10;2.10;;;21.10;64.30;;;;;;5045115;28;20521;-75
2023/05/01 11:16:38;;;;;;;3.05;2.30;;;21.10;64.40;;;;;;5027041;28;20045;-82
2023/05/01 11:19:27;;;;;;;2.17;1.73;;;21.20;64.50;;;;;;5034790;28;20073;-76
2023/05/01 11:21:54;;;;;;;2.60;2.00;;;21.30;64.50;;;;;;5043289;28;20022;-76
2023/05/01 11:24:29;;;;;;;2.03;1.77;;;21.40;64.60;;;;;;5015559;28;20462;-76
2023/05/01 11:26:55;;;;;;;2.50;1.90;;;21.50;64.70;;;;;;5006287;28;20022;-76
2023/05/01 11:29:22;;;;;;;2.50;1.83;;;21.50;64.60;;;;;;5037648;28;20053;-76
2023/05/01 11:31:48;;;;;;;2.47;1.63;;;21.70;64.80;;;;;;5039372;28;20032;-76
2023/05/01 11:34:15;;;;;;;2.25;2.05;;;21.70;64.70;;;;;;5007869;28;20500;-75
2023/05/01 11:36:48;;;;;;;2.75;1.90;;;21.80;65.00;;;;;;5013049;28;20030;-76
2023/05/01 11:39:16;;;;;;;2.00;1.80;;;21.90;65.30;;;;;;5026131;28;20037;-76
2023/05/01 11:41:42;;;;;;;2.00;1.83;;;22.00;65.40;;;;;;5039824;28;20045;-77
2023/05/01 11:44:10;;;;;;;2.13;1.92;;;22.10;65.40;;;;;;5045742;28;20449;-79
2023/05/01 11:46:36;;;;;;;2.83;1.90;;;22.10;65.50;;;;;;5017149;28;20450;-79
2023/05/01 11:49:02;;;;;;;2.58;1.95;;;22.20;65.70;;;;;;4997499;28;20120;-77
2023/05/01 11:51:29;;;;;;;1.83;1.70;;;22.30;66.00;;;;;;5008838;28;20026;-77
2023/05/01 11:54:01;;;;;;;2.72;1.95;;;22.30;66.00;;;;;;5009129;28;20018;-75
2023/05/01 11:56:28;;;;;;;2.17;1.90;;;22.40;66.30;;;;;;5030957;28;20033;-77
2023/05/01 11:58:56;;;;;;;2.33;1.88;;;22.50;66.50;;;;;;5013045;28;20207;-76
2023/05/01 12:01:43;;;;;;;2.55;1.88;;;22.60;66.50;;;;;;5027164;28;20029;-76
2023/05/01 12:04:10;;;;;;;2.00;1.80;;;22.60;66.60;;;;;;5033842;28;20033;-76
2023/05/01 12:06:44;;;;;;;2.30;1.88;;;22.70;66.60;;;;;;5026338;28;20083;-76
2023/05/01 12:09:29;;;;;;;2.25;1.75;;;22.80;66.60;;;;;;5016008;28;20121;-76
2023/05/01 12:11:57;;;;;;;2.30;1.83;;;22.90;67.30;;;;;;5021791;28;20021;-81
2023/05/01 12:14:23;;;;;;;2.55;2.00;;;22.90;66.60;;;;;;5030166;28;20392;-80
2023/05/01 12:16:52;;;;;;;1.90;1.60;;;23.00;66.60;;;;;;4999978;28;20037;-84
2023/05/01 12:19:18;;;;;;;2.25;1.75;;;23.10;66.60;;;;;;5018331;28;20234;-81
2023/05/01 12:21:44;;;;;;;2.47;1.95;;;23.10;66.70;;;;;;5035477;28;20458;-81
2023/05/01 12:24:10;;;;;;;3.20;2.17;;;23.20;66.70;;;;;;5008219;28;20061;-79
2023/05/01 12:26:36;;;;;;;3.72;2.00;;;23.30;66.70;;;;;;5000071;28;20029;-80
2023/05/01 12:29:05;;;;;;;3.17;1.92;;;23.30;66.70;;;;;;5013776;28;20065;-83
2023/05/01 12:31:31;;;;;;;3.28;1.80;;;23.40;66.90;;;;;;5014088;28;20052;-82
2023/05/01 12:33:59;;;;;;;2.40;1.80;;;23.50;66.70;;;;;;5012742;28;20033;-81
2023/05/01 12:36:27;;;;;;;2.30;1.73;;;23.50;66.70;;;;;;5018190;28;20017;-81
2023/05/01 12:39:10;;;;;;;2.47;1.73;;;23.60;66.40;;;;;;5033913;28;20040;-81
2023/05/01 12:41:45;;;;;;;1.85;1.52;;;23.60;66.40;;;;;;5034194;28;20018;-81
2023/05/01 12:44:29;;;;;;;3.60;1.60;;;23.70;65.90;;;;;;5047763;28;20037;-80
2023/05/01 12:46:58;;;;;;;2.30;1.88;;;23.80;65.90;;;;;;5006132;28;20466;-80
2023/05/01 12:49:24;;;;;;;2.30;1.80;;;23.80;65.90;;;;;;5014017;28;20462;-79
2023/05/01 12:51:51;;;;;;;2.42;1.88;;;23.80;65.80;;;;;;5028504;28;20518;-78
2023/05/01 12:54:32;;;;;;;2.75;1.88;;;23.90;65.40;;;;;;5033261;28;20033;-79